ePrivacy and GPDR Cookie Consent by Cookie Consent
EmailTwitter


Observations de surface / Québec / CYUL (71627)

Régions: Québec | Canada | États-Unis | Europe | France | UK | Ailleurs
Station
Affichage
Infos & localisation pour CYUL (71627) | Aide pour décoder les METARs

Observations prises le 2024-03-04 à 22H00 UTC à MONTREAL INTL A, QB (CYUL)

Etat du ciel: partiellement nuageux.

Température: 8.0 Celsius

Point de rosée: 3.0 Celsius

Humidité relative: 71%

Facteur vent 5.

Vents: Nord-est à 20 km/h ou 11 noeuds.

Pression au niveau moyen de la mer: 102.38 kilopascals.

Calage altimétrique: 102.34 kilopascals ou 30.22 pouces de mercure.

Visibilité horizontale: 30.00 milles terrestres ou 48.00 kilomètres.

Hauteur du plafond: 7620 mètres ( 25000 pieds ).

Observation METAR:

CYUL 042200Z 03011KT 30SM BKN250 08/03 A3022 RMK CI6 SLP238=